This is the latest recevied weather packets stored in our database for station/object OE6JUE. If no packets are shown the sender has not sent any weather packets the latest 10 day(s).
| Time | Temp. | Humidity | Pressure | Rain* | Wind** | Luminosity | Snow |
|---|---|---|---|---|---|---|---|
| 1777619812 | 15.56° C | 30% | 1029.1 hPa | 0 mm | - | - | - |
| 1777619512 | 15° C | 30% | 1029.1 hPa | 0 mm | - | - | - |
| 1777619211 | 15° C | 28% | 1028.9 hPa | 0 mm | - | - | - |
| 1777618912 | 15° C | 28% | 1029 hPa | - | - | - | - |
| 1777618611 | 15° C | 30% | 1029.1 hPa | 0 mm | - | - | - |
| 1777618312 | 15° C | 30% | 1029 hPa | 0 mm | - | - | - |
| 1777618012 | 15° C | 30% | 1028.9 hPa | 0 mm | - | - | - |
| 1777617712 | 15° C | 30% | 1028.9 hPa | 0 mm | - | - | - |
| 1777617411 | 15° C | 31% | 1029 hPa | 0 mm | - | - | - |
| 1777617111 | 14.44° C | 31% | 1029 hPa | 0 mm | - | - | - |
| 1777616811 | 14.44° C | 33% | 1029 hPa | 0 mm | - | - | - |
| 1777616512 | 13.89° C | 33% | 1028.9 hPa | 0 mm | - | - | - |
| 1777616212 | 13.33° C | 33% | 1028.8 hPa | 0 mm | - | - | - |
| 1777615911 | 12.22° C | 37% | 1028.9 hPa | 0 mm | - | - | - |
| 1777615611 | 12.22° C | 37% | 1028.8 hPa | 0 mm | - | - | - |
| 1777615312 | 12.22° C | 37% | 1028.9 hPa | - | - | - | - |
| 1777615011 | 11.67° C | 36% | 1028.7 hPa | 0 mm | - | - | - |
| 1777614711 | 11.11° C | 37% | 1028.7 hPa | 0 mm | - | - | - |
| 1777614412 | 10.56° C | 37% | 1028.7 hPa | 0 mm | - | - | - |
| 1777614111 | 10.56° C | 38% | 1028.6 hPa | 0 mm | - | - | - |
| 1777613811 | 10° C | 37% | 1028.7 hPa | 0 mm | - | - | - |
| 1777613511 | 10.56° C | 37% | 1028.5 hPa | 0 mm | - | - | - |
| 1777613213 | 10° C | 37% | 1028.6 hPa | 0 mm | - | - | - |
| 1777612912 | 9.44° C | 37% | 1028.5 hPa | 0 mm | - | - | - |
| 1777612611 | 10° C | 39% | 1028.6 hPa | 0 mm | - | - | - |
* Rain latest hour (hover to see other rain measurements)
** Current wind speed in m/s (hover to see current wind gust speed)